createdAt,value
2023-05-12T00:01:56.579Z,21.80
2023-05-12T00:03:58.499Z,21.80
2023-05-12T00:06:00.934Z,21.80
2023-05-12T00:08:02.736Z,21.80
2023-05-12T00:10:04.643Z,21.80
2023-05-12T00:12:06.527Z,21.80
2023-05-12T00:14:09.012Z,21.80
2023-05-12T00:16:10.843Z,21.80
2023-05-12T00:18:12.595Z,21.80
2023-05-12T00:20:14.435Z,21.80
2023-05-12T00:22:16.154Z,21.80
2023-05-12T00:24:17.904Z,21.80
2023-05-12T00:26:19.639Z,21.80
2023-05-12T00:28:22.066Z,21.80
2023-05-12T00:30:23.817Z,21.80
2023-05-12T00:32:26.296Z,21.80
2023-05-12T00:34:28.058Z,21.80
2023-05-12T00:36:29.812Z,21.80
2023-05-12T00:38:31.843Z,21.80
2023-05-12T00:40:33.753Z,21.80
2023-05-12T00:42:36.074Z,21.90
2023-05-12T00:44:38.298Z,21.90
2023-05-12T00:46:40.140Z,21.80
2023-05-12T00:48:41.956Z,21.90
2023-05-12T00:50:43.897Z,21.80
2023-05-12T00:52:46.448Z,21.90
2023-05-12T00:54:48.660Z,21.80
2023-05-12T00:56:50.578Z,21.80
2023-05-12T00:58:52.967Z,21.90
2023-05-12T01:00:54.826Z,21.80
2023-05-12T01:02:56.960Z,21.90
2023-05-12T01:04:59.837Z,21.80
2023-05-12T01:07:06.527Z,21.90
2023-05-12T01:09:08.691Z,21.90
2023-05-12T01:11:10.740Z,21.80
2023-05-12T01:13:13.585Z,21.80
2023-05-12T01:15:16.021Z,21.80
2023-05-12T01:17:23.814Z,21.80
2023-05-12T01:19:43.635Z,21.80
2023-05-12T01:21:45.772Z,21.80
2023-05-12T01:23:56.766Z,21.80
2023-05-12T01:26:10.882Z,21.80
2023-05-12T01:28:13.439Z,21.80
2023-05-12T01:30:16.827Z,21.80
2023-05-12T01:32:19.426Z,21.80
2023-05-12T01:34:21.230Z,21.80
2023-05-12T01:36:26.031Z,21.80
2023-05-12T01:38:27.982Z,21.80
2023-05-12T01:40:29.833Z,21.80
2023-05-12T01:42:32.537Z,21.80
2023-05-12T01:44:34.517Z,21.80
2023-05-12T01:46:36.702Z,21.80
2023-05-12T01:48:39.251Z,21.80
2023-05-12T01:50:42.211Z,21.80
2023-05-12T01:52:48.333Z,21.80
2023-05-12T01:54:52.115Z,21.80
2023-05-12T01:56:54.163Z,21.80
2023-05-12T01:58:56.089Z,21.80
2023-05-12T02:00:57.896Z,21.80
2023-05-12T02:02:59.819Z,21.80
2023-05-12T02:05:01.673Z,21.80
2023-05-12T02:07:03.452Z,21.80
2023-05-12T02:09:05.225Z,21.80
2023-05-12T02:11:07.897Z,21.80
2023-05-12T02:13:09.887Z,21.80
2023-05-12T02:15:11.809Z,21.80
2023-05-12T02:17:18.360Z,21.80
2023-05-12T02:19:21.642Z,21.80
2023-05-12T02:21:23.399Z,21.80
2023-05-12T02:23:27.453Z,21.80
2023-05-12T02:25:29.193Z,21.80
2023-05-12T02:27:31.275Z,21.80
2023-05-12T02:29:33.115Z,21.80
2023-05-12T02:31:34.979Z,21.80
2023-05-12T02:33:36.945Z,21.80
2023-05-12T02:35:38.918Z,21.80
2023-05-12T02:37:40.726Z,21.80
2023-05-12T02:39:42.588Z,21.80
2023-05-12T02:41:44.324Z,21.80
2023-05-12T02:43:46.138Z,21.80
2023-05-12T02:45:47.928Z,21.70
2023-05-12T02:47:49.822Z,21.80
2023-05-12T02:49:51.600Z,21.80
2023-05-12T02:51:53.699Z,21.80
2023-05-12T02:53:55.433Z,21.70
2023-05-12T02:55:57.269Z,21.70
2023-05-12T02:57:59.058Z,21.80
2023-05-12T03:00:01.534Z,21.70
2023-05-12T03:02:03.443Z,21.70
2023-05-12T03:04:05.240Z,21.70
2023-05-12T03:06:07.366Z,21.80
2023-05-12T03:08:09.896Z,21.70
2023-05-12T03:10:11.709Z,21.70
2023-05-12T03:12:13.595Z,21.70
2023-05-12T03:14:15.746Z,21.70
2023-05-12T03:16:19.481Z,21.70
2023-05-12T03:18:23.172Z,21.70
2023-05-12T03:20:25.534Z,21.70
2023-05-12T03:22:27.323Z,21.70
2023-05-12T03:24:31.484Z,21.70
2023-05-12T03:26:33.586Z,21.70
2023-05-12T03:28:35.632Z,21.70
2023-05-12T03:30:37.337Z,21.70
2023-05-12T03:32:39.390Z,21.70
2023-05-12T03:34:44.008Z,21.70
2023-05-12T03:36:46.202Z,21.70
2023-05-12T03:38:47.953Z,21.70
2023-05-12T03:40:49.791Z,21.70
2023-05-12T03:42:51.527Z,21.70
2023-05-12T03:44:53.702Z,21.70
2023-05-12T03:46:56.401Z,21.70
2023-05-12T03:48:58.235Z,21.70
2023-05-12T03:51:00.051Z,21.70
2023-05-12T03:53:02.965Z,21.70
2023-05-12T03:55:05.418Z,21.70
2023-05-12T03:57:07.222Z,21.70
2023-05-12T03:59:08.979Z,21.70
2023-05-12T04:01:10.852Z,21.70
2023-05-12T04:03:12.706Z,21.70
2023-05-12T04:05:15.202Z,21.70
2023-05-12T04:07:17.020Z,21.70
2023-05-12T04:09:18.855Z,21.70
2023-05-12T04:11:20.556Z,21.70
2023-05-12T04:13:22.344Z,21.70
2023-05-12T04:15:24.080Z,21.70
2023-05-12T04:17:25.903Z,21.70
2023-05-12T04:19:27.733Z,21.70
2023-05-12T04:21:29.825Z,21.70
2023-05-12T04:23:31.623Z,21.70
2023-05-12T04:25:33.601Z,21.70
2023-05-12T04:27:35.367Z,21.70
2023-05-12T04:29:38.377Z,21.70
2023-05-12T04:31:40.383Z,21.70
2023-05-12T04:33:42.257Z,21.70
2023-05-12T04:35:44.957Z,21.60
2023-05-12T04:37:48.141Z,21.70
2023-05-12T04:39:51.050Z,21.60
2023-05-12T04:41:52.856Z,21.70
2023-05-12T04:46:00.353Z,21.70
2023-05-12T04:48:02.819Z,21.70
2023-05-12T04:50:04.920Z,21.70
2023-05-12T04:52:07.073Z,21.70
2023-05-12T04:54:09.679Z,21.70
2023-05-12T04:56:11.572Z,21.70
2023-05-12T04:58:13.918Z,21.60
2023-05-12T05:00:15.759Z,21.70
2023-05-12T05:02:19.376Z,21.60
2023-05-12T05:04:21.667Z,21.70
2023-05-12T05:06:23.750Z,21.70
2023-05-12T05:08:25.506Z,21.60
2023-05-12T05:10:27.331Z,21.60
2023-05-12T05:12:29.087Z,21.70
2023-05-12T05:14:30.947Z,21.70
2023-05-12T05:16:32.758Z,21.70
2023-05-12T05:18:34.751Z,21.70
2023-05-12T05:20:40.675Z,21.60
2023-05-12T05:22:45.017Z,21.70
2023-05-12T05:24:47.008Z,21.70
2023-05-12T05:26:48.855Z,21.70
2023-05-12T05:28:50.617Z,21.70
2023-05-12T05:30:52.581Z,21.70
2023-05-12T05:32:54.405Z,21.70
2023-05-12T05:34:56.266Z,21.70
2023-05-12T05:36:58.006Z,21.70
2023-05-12T05:38:59.816Z,21.70
2023-05-12T05:41:01.631Z,21.70
2023-05-12T05:43:03.508Z,21.70
2023-05-12T05:45:05.510Z,21.70
2023-05-12T05:47:07.888Z,21.70
2023-05-12T05:49:09.843Z,21.70
2023-05-12T05:51:11.693Z,21.70
2023-05-12T05:53:14.184Z,21.70
2023-05-12T05:55:16.230Z,21.70
2023-05-12T05:57:18.022Z,21.70
2023-05-12T05:59:20.355Z,21.70
2023-05-12T06:01:22.453Z,21.70
2023-05-12T06:03:24.347Z,21.80
2023-05-12T06:05:26.197Z,21.70
2023-05-12T06:07:27.998Z,21.70
2023-05-12T06:09:29.751Z,21.70
2023-05-12T06:11:31.563Z,21.70
2023-05-12T06:13:33.935Z,21.80
2023-05-12T06:15:35.954Z,21.80
2023-05-12T06:17:37.942Z,21.80
2023-05-12T06:19:39.722Z,21.70
2023-05-12T06:21:41.505Z,21.80
2023-05-12T06:23:43.284Z,21.70
2023-05-12T06:25:44.991Z,21.80
2023-05-12T06:27:46.816Z,21.80
2023-05-12T06:29:48.730Z,21.80
2023-05-12T06:31:50.555Z,21.80
2023-05-12T06:33:52.388Z,21.80
2023-05-12T06:35:54.224Z,21.80
2023-05-12T06:37:55.998Z,21.80
2023-05-12T06:39:57.781Z,21.80
2023-05-12T06:42:00.367Z,21.80
2023-05-12T06:44:11.498Z,21.80
2023-05-12T06:46:13.245Z,21.80
2023-05-12T06:48:17.408Z,21.80
2023-05-12T06:50:19.219Z,21.80
2023-05-12T06:52:24.978Z,21.80
2023-05-12T06:54:26.737Z,21.80
2023-05-12T06:56:28.547Z,21.80
2023-05-12T06:58:30.378Z,21.90
2023-05-12T07:00:32.200Z,21.90
2023-05-12T07:02:33.964Z,21.90
2023-05-12T07:04:35.758Z,21.90
2023-05-12T07:06:37.494Z,21.90
2023-05-12T07:08:39.314Z,21.90
2023-05-12T07:10:41.192Z,21.90
2023-05-12T07:12:43.056Z,21.90
2023-05-12T07:14:44.772Z,21.90
2023-05-12T07:16:46.576Z,21.90
2023-05-12T07:18:48.373Z,21.90
2023-05-12T07:20:50.269Z,21.90
2023-05-12T07:22:52.002Z,21.90
2023-05-12T07:24:53.949Z,21.90
2023-05-12T07:26:55.730Z,21.90
2023-05-12T07:28:57.603Z,21.90
2023-05-12T07:30:59.357Z,21.90
2023-05-12T07:33:01.286Z,21.90
2023-05-12T07:35:03.136Z,21.90
2023-05-12T07:37:05.017Z,21.90
2023-05-12T07:39:06.800Z,21.90
2023-05-12T07:41:08.632Z,21.90
2023-05-12T07:43:10.694Z,21.80
2023-05-12T07:45:12.501Z,21.80
2023-05-12T07:47:14.638Z,21.70
2023-05-12T07:49:16.569Z,21.70
2023-05-12T07:51:18.344Z,21.70
2023-05-12T07:53:20.174Z,21.60
2023-05-12T07:55:22.423Z,21.60
2023-05-12T07:57:24.542Z,21.50
2023-05-12T07:59:26.369Z,21.60
2023-05-12T08:01:28.159Z,21.50
2023-05-12T08:03:29.960Z,21.50
2023-05-12T08:05:31.907Z,21.50
2023-05-12T08:07:33.630Z,21.40
2023-05-12T08:09:35.448Z,21.30
2023-05-12T08:11:37.206Z,21.20
2023-05-12T08:13:39.017Z,21.20
2023-05-12T08:15:40.721Z,21.10
2023-05-12T08:17:42.524Z,21.00
2023-05-12T08:19:44.295Z,21.00
2023-05-12T08:21:46.114Z,21.20
2023-05-12T08:23:47.856Z,21.30
2023-05-12T08:25:49.662Z,21.40
2023-05-12T08:27:51.401Z,21.40
2023-05-12T08:29:53.184Z,21.50
2023-05-12T08:31:55.031Z,21.50
2023-05-12T08:34:09.160Z,21.50
2023-05-12T08:36:12.411Z,21.60
2023-05-12T08:38:14.298Z,21.60
2023-05-12T08:40:20.206Z,21.60
2023-05-12T08:42:34.640Z,21.60
2023-05-12T08:44:39.665Z,21.60
2023-05-12T08:46:42.250Z,21.60
2023-05-12T08:48:45.619Z,21.60
2023-05-12T08:50:50.014Z,21.60
2023-05-12T08:52:51.966Z,21.60
2023-05-12T08:54:56.464Z,21.60
2023-05-12T08:59:04.461Z,21.60
2023-05-12T09:01:06.865Z,21.60
2023-05-12T09:03:08.981Z,21.60
2023-05-12T09:05:10.722Z,21.60
2023-05-12T09:07:13.098Z,21.60
2023-05-12T09:09:16.431Z,21.60
2023-05-12T09:11:19.482Z,21.70
2023-05-12T09:13:23.989Z,21.60
2023-05-12T09:15:33.573Z,21.60
2023-05-12T09:17:35.529Z,21.70
2023-05-12T09:19:37.418Z,21.70
2023-05-12T09:21:39.141Z,21.70
2023-05-12T09:23:40.987Z,21.70
2023-05-12T09:25:42.739Z,21.70
2023-05-12T09:27:47.991Z,21.70
2023-05-12T09:29:59.225Z,21.70
2023-05-12T09:32:02.501Z,21.80
2023-05-12T09:34:10.423Z,21.80
2023-05-12T09:36:16.338Z,21.80
2023-05-12T09:38:18.078Z,21.80
2023-05-12T09:40:19.899Z,21.80
2023-05-12T09:42:22.695Z,21.80
2023-05-12T09:44:25.148Z,21.80
2023-05-12T09:46:27.035Z,21.80
2023-05-12T09:48:29.967Z,21.80
2023-05-12T09:50:40.856Z,21.80
2023-05-12T09:52:50.024Z,21.90
2023-05-12T09:54:51.737Z,21.80
2023-05-12T09:56:55.196Z,21.80
2023-05-12T09:58:57.392Z,21.90
2023-05-12T10:01:18.332Z,21.90
2023-05-12T10:03:21.571Z,21.80
2023-05-12T10:05:23.563Z,21.90
2023-05-12T10:07:25.655Z,21.90
2023-05-12T10:09:31.726Z,21.90
2023-05-12T10:11:33.627Z,21.90
2023-05-12T10:13:35.474Z,21.90
2023-05-12T10:15:37.303Z,21.90
2023-05-12T10:17:40.436Z,21.90
2023-05-12T10:19:42.197Z,21.90
2023-05-12T10:21:44.591Z,21.90
2023-05-12T10:23:46.744Z,21.90
2023-05-12T10:25:49.369Z,21.90
2023-05-12T10:27:51.177Z,21.90
2023-05-12T10:29:53.773Z,21.90
2023-05-12T10:31:56.043Z,21.90
2023-05-12T10:34:01.408Z,21.90
2023-05-12T10:36:03.392Z,21.90
2023-05-12T10:38:09.532Z,21.90
2023-05-12T10:40:11.346Z,21.90
2023-05-12T10:42:16.104Z,21.90
2023-05-12T10:44:26.422Z,21.90
2023-05-12T10:46:28.361Z,21.90
2023-05-12T10:48:30.185Z,22.00
2023-05-12T10:50:32.035Z,21.90
2023-05-12T10:52:33.782Z,21.90
2023-05-12T10:54:42.656Z,21.90
2023-05-12T10:56:45.297Z,21.90
2023-05-12T10:59:06.681Z,22.00
2023-05-12T11:01:09.279Z,22.00
2023-05-12T11:03:12.698Z,22.00
2023-05-12T11:05:15.234Z,22.00
2023-05-12T11:07:20.373Z,22.00
2023-05-12T11:09:22.748Z,22.00
2023-05-12T11:11:25.104Z,22.00
2023-05-12T11:13:28.370Z,22.00
2023-05-12T11:15:30.593Z,22.00
2023-05-12T11:17:32.588Z,22.00
2023-05-12T11:19:34.565Z,22.00
2023-05-12T11:21:36.368Z,22.10
2023-05-12T11:23:38.590Z,22.00
2023-05-12T11:25:41.593Z,22.10
2023-05-12T11:27:49.785Z,22.10
2023-05-12T11:29:58.614Z,22.10
2023-05-12T11:32:00.582Z,22.10
2023-05-12T11:34:11.863Z,22.10
2023-05-12T11:36:20.402Z,22.10
2023-05-12T11:38:23.273Z,22.10
2023-05-12T11:40:25.159Z,22.10
2023-05-12T11:42:26.942Z,22.10
2023-05-12T11:44:28.750Z,22.10
2023-05-12T11:46:30.832Z,22.20
2023-05-12T11:48:35.942Z,22.20
2023-05-12T11:50:38.572Z,22.20
2023-05-12T11:52:40.478Z,22.20
2023-05-12T11:54:58.548Z,22.20
2023-05-12T11:57:00.345Z,22.20
2023-05-12T11:59:02.192Z,22.20
2023-05-12T12:01:10.350Z,22.20
2023-05-12T12:03:13.031Z,22.20
2023-05-12T12:05:18.698Z,22.20
2023-05-12T12:07:30.490Z,22.20
2023-05-12T12:09:36.364Z,22.20
2023-05-12T12:11:38.141Z,22.20
2023-05-12T12:13:47.213Z,22.10
2023-05-12T12:15:49.240Z,22.00
2023-05-12T12:17:51.189Z,21.90
2023-05-12T12:19:52.987Z,21.80
2023-05-12T12:21:55.709Z,21.90
2023-05-12T12:23:57.553Z,21.80
2023-05-12T12:25:59.319Z,21.90
2023-05-12T12:28:01.063Z,21.90
2023-05-12T12:30:02.967Z,22.00
2023-05-12T12:32:04.865Z,22.00
2023-05-12T12:34:06.767Z,22.00
2023-05-12T12:36:08.945Z,22.00
2023-05-12T12:38:10.707Z,22.00
2023-05-12T12:40:12.496Z,22.00
2023-05-12T12:42:14.549Z,22.10
2023-05-12T12:44:16.451Z,22.00
2023-05-12T12:46:18.755Z,22.10
2023-05-12T12:48:20.924Z,22.00
2023-05-12T12:50:23.901Z,22.00
2023-05-12T12:52:27.773Z,22.00
2023-05-12T12:54:29.634Z,22.00
2023-05-12T12:56:31.480Z,22.10
2023-05-12T12:58:33.480Z,22.10
2023-05-12T13:00:35.944Z,22.10
2023-05-12T13:02:37.857Z,22.10
2023-05-12T13:04:39.862Z,22.10
2023-05-12T13:06:41.619Z,22.10
2023-05-12T13:08:43.347Z,22.10
2023-05-12T13:10:45.349Z,22.00
2023-05-12T13:12:47.140Z,21.80
2023-05-12T13:14:49.029Z,21.70
2023-05-12T13:16:51.152Z,21.60
2023-05-12T13:18:53.002Z,21.50
2023-05-12T13:20:54.773Z,21.40
2023-05-12T13:22:56.565Z,21.40
2023-05-12T13:24:58.529Z,21.40
2023-05-12T13:27:00.430Z,21.40
2023-05-12T13:29:02.279Z,21.40
2023-05-12T13:31:04.161Z,21.40
2023-05-12T13:33:06.364Z,21.40
2023-05-12T13:35:08.573Z,21.40
2023-05-12T13:37:10.284Z,21.40
2023-05-12T13:39:12.096Z,21.40
2023-05-12T13:41:14.022Z,21.30
2023-05-12T13:43:15.877Z,21.40
2023-05-12T13:45:19.438Z,21.40
2023-05-12T13:47:21.461Z,21.40
2023-05-12T13:49:23.222Z,21.30
2023-05-12T13:51:25.052Z,21.30
2023-05-12T13:53:26.777Z,21.30
2023-05-12T13:55:28.597Z,21.30
2023-05-12T13:57:30.299Z,21.20
2023-05-12T13:59:32.208Z,21.30
2023-05-12T14:01:34.038Z,21.60
2023-05-12T14:03:36.016Z,21.20
2023-05-12T14:05:37.816Z,21.20
2023-05-12T14:07:39.713Z,21.30
2023-05-12T14:09:41.492Z,21.30
2023-05-12T14:11:43.383Z,21.30
2023-05-12T14:13:45.225Z,21.30
2023-05-12T14:15:49.043Z,22.70
2023-05-12T14:17:51.827Z,21.40
2023-05-12T14:19:53.680Z,21.30
2023-05-12T14:21:55.410Z,21.30
2023-05-12T14:23:57.303Z,21.30
2023-05-12T14:25:59.044Z,21.20
2023-05-12T14:28:00.853Z,21.20
2023-05-12T14:30:02.707Z,21.20
2023-05-12T14:32:05.089Z,21.30
2023-05-12T14:34:06.964Z,21.30
2023-05-12T14:36:09.166Z,21.30
2023-05-12T14:38:10.964Z,21.40
2023-05-12T14:40:13.128Z,21.40
2023-05-12T14:42:14.871Z,21.40
2023-05-12T14:44:16.710Z,21.40
2023-05-12T14:46:18.543Z,21.30
2023-05-12T14:48:23.623Z,21.40
2023-05-12T14:50:25.358Z,20.80
2023-05-12T14:52:27.184Z,21.40
2023-05-12T14:54:29.674Z,21.40
2023-05-12T14:56:31.735Z,21.50
2023-05-12T14:58:33.556Z,21.50
2023-05-12T15:00:35.306Z,21.50
2023-05-12T15:02:37.252Z,21.40
2023-05-12T15:04:39.098Z,21.50
2023-05-12T15:06:40.838Z,21.50
2023-05-12T15:08:42.679Z,21.40
2023-05-12T15:10:44.646Z,21.40
2023-05-12T15:12:46.503Z,21.30
2023-05-12T15:14:48.473Z,21.30
2023-05-12T15:16:50.462Z,21.30
2023-05-12T15:18:52.405Z,21.30
2023-05-12T15:20:54.329Z,21.20
2023-05-12T15:22:56.262Z,21.20
2023-05-12T15:24:58.794Z,21.20
2023-05-12T15:27:00.614Z,21.20
2023-05-12T15:29:02.500Z,21.20
2023-05-12T15:31:04.931Z,21.30
2023-05-12T15:33:07.264Z,21.30
2023-05-12T15:35:09.756Z,21.30
2023-05-12T15:37:11.675Z,21.20
2023-05-12T15:39:13.491Z,21.30
2023-05-12T15:41:15.336Z,21.30
2023-05-12T15:43:17.190Z,21.30
2023-05-12T15:45:19.361Z,21.40
2023-05-12T15:47:21.225Z,21.40
2023-05-12T15:49:23.054Z,21.40
2023-05-12T15:51:24.805Z,21.30
2023-05-12T15:53:26.580Z,21.30
2023-05-12T15:55:28.311Z,21.30
2023-05-12T15:57:30.142Z,21.30
2023-05-12T15:59:31.875Z,21.20
2023-05-12T16:01:33.764Z,21.30
2023-05-12T16:03:35.590Z,21.30
2023-05-12T16:05:37.486Z,21.30
2023-05-12T16:07:39.181Z,21.20
2023-05-12T16:09:41.002Z,21.30
2023-05-12T16:11:42.773Z,21.30
2023-05-12T16:13:44.539Z,21.30
2023-05-12T16:15:46.304Z,21.40
2023-05-12T16:17:48.175Z,21.40
2023-05-12T16:19:49.933Z,21.40
2023-05-12T16:21:51.743Z,21.40
2023-05-12T16:23:53.442Z,21.40
2023-05-12T16:25:55.243Z,21.50
2023-05-12T16:27:56.978Z,21.50
2023-05-12T16:29:58.842Z,21.50
2023-05-12T16:32:00.663Z,21.50
2023-05-12T16:34:02.543Z,21.50
2023-05-12T16:36:04.299Z,21.50
2023-05-12T16:38:06.142Z,21.50
2023-05-12T16:40:13.897Z,21.50
2023-05-12T16:42:15.669Z,21.50
2023-05-12T16:44:17.402Z,21.60
2023-05-12T16:46:19.254Z,21.60
2023-05-12T16:48:20.969Z,21.60
2023-05-12T16:50:22.734Z,21.60
2023-05-12T16:52:24.832Z,21.60
2023-05-12T16:54:26.594Z,21.60
2023-05-12T16:56:28.341Z,21.60
2023-05-12T16:58:30.519Z,21.60
2023-05-12T17:00:32.230Z,21.60
2023-05-12T17:02:34.036Z,21.60
2023-05-12T17:04:35.948Z,21.60
2023-05-12T17:06:37.842Z,21.60
2023-05-12T17:08:39.555Z,21.60
2023-05-12T17:10:41.437Z,21.60
2023-05-12T17:12:43.199Z,21.60
2023-05-12T17:14:50.210Z,21.70
2023-05-12T17:16:57.796Z,21.70
2023-05-12T17:21:04.302Z,21.70
2023-05-12T17:23:06.084Z,21.70
2023-05-12T17:25:08.047Z,21.70
2023-05-12T17:27:09.890Z,21.70
2023-05-12T17:29:11.685Z,21.70
2023-05-12T17:31:13.656Z,21.70
2023-05-12T17:33:15.698Z,21.70
2023-05-12T17:35:17.583Z,21.70
2023-05-12T17:37:19.347Z,21.60
2023-05-12T17:39:21.184Z,21.60
2023-05-12T17:41:22.906Z,21.70
2023-05-12T17:43:24.651Z,21.60
2023-05-12T17:45:26.393Z,21.60
2023-05-12T17:47:28.303Z,21.60
2023-05-12T17:49:30.114Z,21.60
2023-05-12T17:51:31.927Z,21.60
2023-05-12T17:53:33.933Z,21.60
2023-05-12T17:55:35.753Z,21.60
2023-05-12T17:57:37.530Z,21.60
2023-05-12T17:59:39.318Z,21.60
2023-05-12T18:01:41.145Z,21.60
2023-05-12T18:03:42.997Z,21.60
2023-05-12T18:05:44.776Z,21.50
2023-05-12T18:07:46.538Z,21.60
2023-05-12T18:09:48.276Z,21.60
2023-05-12T18:11:50.030Z,21.60
2023-05-12T18:13:52.690Z,21.60
2023-05-12T18:15:54.498Z,21.60
2023-05-12T18:17:56.230Z,21.60
2023-05-12T18:19:58.477Z,21.50
2023-05-12T18:22:00.246Z,21.60
2023-05-12T18:24:02.308Z,21.60
2023-05-12T18:26:04.018Z,21.60
2023-05-12T18:28:05.855Z,21.50
2023-05-12T18:30:07.848Z,21.50
2023-05-12T18:32:09.628Z,21.50
2023-05-12T18:34:11.403Z,21.50
2023-05-12T18:36:13.247Z,21.50
2023-05-12T18:38:14.991Z,21.50
2023-05-12T18:40:16.827Z,21.50
2023-05-12T18:42:18.628Z,21.50
2023-05-12T18:44:20.429Z,21.50
2023-05-12T18:46:22.223Z,21.50
2023-05-12T18:48:24.008Z,21.50
2023-05-12T18:50:25.793Z,21.50
2023-05-12T18:52:27.568Z,21.50
2023-05-12T18:54:29.528Z,21.50
2023-05-12T18:56:31.319Z,21.50
2023-05-12T18:58:33.045Z,21.50
2023-05-12T19:00:34.857Z,21.50
2023-05-12T19:02:36.642Z,21.50
2023-05-12T19:04:38.524Z,21.50
2023-05-12T19:06:40.338Z,21.50
2023-05-12T19:08:42.083Z,21.50
2023-05-12T19:10:43.864Z,21.40
2023-05-12T19:12:45.728Z,21.40
2023-05-12T19:14:47.460Z,21.50
2023-05-12T19:16:49.407Z,21.50
2023-05-12T19:18:51.212Z,21.50
2023-05-12T19:20:53.050Z,21.50
2023-05-12T19:22:54.785Z,21.50
2023-05-12T19:24:56.641Z,21.50
2023-05-12T19:26:58.385Z,21.50
2023-05-12T19:29:00.229Z,21.40
2023-05-12T19:31:02.016Z,21.40
2023-05-12T19:33:03.943Z,21.40
2023-05-12T19:35:06.416Z,21.60
2023-05-12T19:37:08.249Z,21.50
2023-05-12T19:39:09.945Z,21.40
2023-05-12T19:41:11.997Z,21.40
2023-05-12T19:43:13.738Z,21.40
2023-05-12T19:45:15.517Z,21.40
2023-05-12T19:47:17.354Z,21.40
2023-05-12T19:49:19.184Z,21.40
2023-05-12T19:51:20.957Z,21.40
2023-05-12T19:53:22.779Z,21.40
2023-05-12T19:55:24.546Z,21.40
2023-05-12T19:57:26.340Z,21.40
2023-05-12T19:59:28.065Z,21.40
2023-05-12T20:01:30.088Z,21.40
2023-05-12T20:03:31.985Z,21.40
2023-05-12T20:05:37.078Z,21.40
2023-05-12T20:07:38.846Z,21.40
2023-05-12T20:09:40.640Z,21.40
2023-05-12T20:11:42.344Z,21.40
2023-05-12T20:13:44.144Z,21.40
2023-05-12T20:15:45.889Z,21.40
2023-05-12T20:17:47.707Z,21.40
2023-05-12T20:19:49.511Z,21.40
2023-05-12T20:21:51.356Z,21.40
2023-05-12T20:23:53.133Z,21.40
2023-05-12T20:25:55.098Z,21.40
2023-05-12T20:27:56.848Z,21.40
2023-05-12T20:29:58.903Z,21.40
2023-05-12T20:32:00.643Z,21.40
2023-05-12T20:34:02.469Z,21.30
2023-05-12T20:36:04.339Z,21.30
2023-05-12T20:38:06.150Z,21.30
2023-05-12T20:40:08.385Z,21.30
2023-05-12T20:42:10.179Z,21.30
2023-05-12T20:44:11.949Z,21.30
2023-05-12T20:46:13.743Z,21.30
2023-05-12T20:48:15.617Z,21.30
2023-05-12T20:50:17.478Z,21.30
2023-05-12T20:52:19.199Z,21.30
2023-05-12T20:54:21.054Z,21.30
2023-05-12T20:56:22.790Z,21.30
2023-05-12T20:58:24.547Z,21.30
2023-05-12T21:00:26.306Z,21.30
2023-05-12T21:02:29.280Z,21.30
2023-05-12T21:04:31.328Z,21.30
2023-05-12T21:06:34.762Z,21.30
2023-05-12T21:08:36.504Z,21.30
2023-05-12T21:10:38.257Z,21.30
2023-05-12T21:12:40.040Z,21.30
2023-05-12T21:14:42.283Z,21.30
2023-05-12T21:16:44.028Z,21.30
2023-05-12T21:18:45.853Z,21.30
2023-05-12T21:20:47.654Z,21.30
2023-05-12T21:22:49.440Z,21.30
2023-05-12T21:24:51.721Z,21.20
2023-05-12T21:26:53.608Z,21.20
2023-05-12T21:28:55.338Z,21.20
2023-05-12T21:30:57.088Z,21.20
2023-05-12T21:32:58.912Z,21.20
2023-05-12T21:35:00.736Z,21.20
2023-05-12T21:37:02.507Z,21.20
2023-05-12T21:39:04.406Z,21.20
2023-05-12T21:41:06.123Z,21.20
2023-05-12T21:43:07.951Z,21.20
2023-05-12T21:45:09.840Z,21.20
2023-05-12T21:47:11.689Z,21.20
2023-05-12T21:49:13.444Z,21.20
2023-05-12T21:51:15.382Z,21.20
2023-05-12T21:53:17.111Z,21.20
2023-05-12T21:55:18.960Z,21.20
2023-05-12T21:57:20.809Z,21.20
2023-05-12T21:59:22.575Z,21.20
2023-05-12T22:01:24.438Z,21.20
2023-05-12T22:03:26.332Z,21.20
2023-05-12T22:05:28.074Z,21.20
2023-05-12T22:07:29.975Z,21.20
2023-05-12T22:09:31.719Z,21.20
2023-05-12T22:11:33.561Z,21.20
2023-05-12T22:13:35.293Z,21.10
2023-05-12T22:15:37.152Z,21.20
2023-05-12T22:17:39.189Z,21.20
2023-05-12T22:19:41.006Z,21.20
2023-05-12T22:21:42.794Z,21.20
2023-05-12T22:23:44.550Z,21.10
2023-05-12T22:25:46.259Z,21.10
2023-05-12T22:27:48.121Z,21.10
2023-05-12T22:29:49.897Z,21.20
2023-05-12T22:31:51.703Z,21.10
2023-05-12T22:33:53.481Z,21.10
2023-05-12T22:35:57.737Z,21.10
2023-05-12T22:37:59.526Z,21.10
2023-05-12T22:40:01.446Z,21.10
2023-05-12T22:42:03.269Z,21.10
2023-05-12T22:44:05.237Z,21.10
2023-05-12T22:46:07.012Z,21.10
2023-05-12T22:48:08.932Z,21.10
2023-05-12T22:50:10.822Z,21.10
2023-05-12T22:52:12.619Z,21.10
2023-05-12T22:54:14.386Z,21.10
2023-05-12T22:56:16.259Z,21.10
2023-05-12T22:58:17.984Z,21.10
2023-05-12T23:00:20.165Z,21.10
2023-05-12T23:02:22.195Z,21.10
2023-05-12T23:04:24.194Z,21.10
2023-05-12T23:06:26.112Z,21.10
2023-05-12T23:08:27.942Z,21.10
2023-05-12T23:10:29.779Z,21.10
2023-05-12T23:12:31.563Z,21.10
2023-05-12T23:14:33.347Z,21.10
2023-05-12T23:16:35.193Z,21.10
2023-05-12T23:18:37.024Z,21.10
2023-05-12T23:20:38.902Z,21.10
2023-05-12T23:22:40.715Z,21.10
2023-05-12T23:24:42.619Z,21.10
2023-05-12T23:26:44.382Z,21.00
2023-05-12T23:28:46.197Z,21.10
2023-05-12T23:30:47.952Z,21.00
2023-05-12T23:32:49.930Z,21.00
2023-05-12T23:34:51.741Z,21.00
2023-05-12T23:36:53.734Z,21.00
2023-05-12T23:38:55.441Z,21.00
2023-05-12T23:40:57.272Z,21.00
2023-05-12T23:42:59.230Z,21.00
2023-05-12T23:45:01.001Z,21.00
2023-05-12T23:47:02.746Z,21.00
2023-05-12T23:49:04.614Z,21.00
2023-05-12T23:51:06.368Z,21.00
2023-05-12T23:53:08.277Z,21.00
2023-05-12T23:55:10.047Z,21.00
2023-05-12T23:57:11.835Z,21.00
2023-05-12T23:59:13.580Z,21.00
